25 września 2022

Czas Kod Pogoda Temp. Widoczność Sufit Wiatr METAR/SPECI
10:00
V
24 °C 10 km+ - 110° 110° 14 kt METAR FIMP 250600Z 11014KT 9999 SCT018 24/16 Q1023
09:00
V
24 °C 10 km+ - 110° 110° 13 kt METAR FIMP 250500Z 11013KT 9999 SCT018 24/16 Q1023
08:00
V
23 °C 10 km+ - 120° 120° 13 kt METAR FIMP 250400Z 12013KT 9999 SCT017 23/17 Q1023
07:00
V
22 °C 10 km+ - 120° 120° 10 kt METAR FIMP 250300Z 12010KT 9999 SCT017 22/16 Q1023
06:00
V
21 °C 10 km+ - 120° 120° 10 kt METAR FIMP 250200Z 12010KT 9999 SCT017 21/16 Q1022
05:00
V
21 °C 10 km+ - 120° 120° 10 kt METAR FIMP 250100Z 12010KT 9999 SCT017 21/16 Q1022
04:00
V
21 °C 10 km+ - 120° 120° 12 kt METAR FIMP 250000Z 12012KT 9999 SCT017 21/16 Q1021
03:00
V
21 °C 10 km+ - 120° 120° 12 kt METAR FIMP 242300Z 12012KT 9999 SCT017 21/16 Q1022
02:00
V
21 °C 10 km+ - 110° 110° 13 kt METAR FIMP 242200Z 11013KT 9999 SCT017 21/17 Q1022
01:00
V
21 °C 10 km+ - 100° 100° 10 kt METAR FIMP 242100Z 10010KT 9999 SCT017 21/17 Q1022
00:00
V
21 °C 10 km+ - 110° 110° 13 kt METAR FIMP 242000Z 11013KT 9999 SCT017 21/17 Q1023

24 września 2022

Czas Kod Pogoda Temp. Widoczność Sufit Wiatr METAR/SPECI
23:00
V
22 °C 10 km+ - 110° 110° 12 kt METAR FIMP 241900Z 11012KT 9999 VCSH SCT016 22/17 Q1023
22:00
M
22 °C 10 km+ 1.600 ft 110° 110° 12 kt METAR FIMP 241800Z 11012KT 9999 VCSH BKN016 22/17 Q1024
21:00
M
22 °C 10 km+ 1.600 ft 120° 120° 15 kt METAR FIMP 241700Z 12015KT 9999 VCSH BKN016 22/17 Q1023
20:00
V
22 °C 10 km+ - 100° 100° 15 kt METAR FIMP 241600Z 10015KT 9999 VCSH SCT016 22/18 Q1023
19:00
V
22 °C 10 km+ - 100° 100° 11 kt METAR FIMP 241500Z 10011KT 9999 VCSH FEW010 SCT015 22/18 Q1023
18:00
M
22 °C 5 km 1.500 ft 110° 110° 12 kt METAR FIMP 241400Z 11012KT 5000 VCSH FEW008 BKN015 22/19 Q1022
17:00
V
22 °C 8 km 5.000 ft 110° 110° 16 kt METAR FIMP 241300Z 11016KT 8000 VCSH FEW010 SCT015 BKN050 22/19 Q1021
16:00
V
23 °C 10 km+ - 120° 120° 15 kt METAR FIMP 241200Z 12015KT 9999 VCSH FEW010 SCT015 23/18 Q1021
15:00
M
23 °C 8 km 1.500 ft 120° 120° 14 - 24 kt METAR FIMP 241100Z 12014G24KT 8000 VCSH FEW010 BKN015 23/19 Q1021
14:00
M
24 °C 8 km 1.500 ft 120° 120° 14 kt METAR FIMP 241000Z 12014KT 8000 VCSH BKN015 24/18 Q1021
13:00
V
23 °C 10 km+ - 120° 120° 13 kt METAR FIMP 240900Z 12013KT 9999 VCSH SCT016 23/20 Q1022
12:00
M
24 °C 10 km+ 1.600 ft 110° 110° 14 kt METAR FIMP 240800Z 11014KT 9999 BKN016 SCT050 24/18 Q1023
11:00
V
24 °C 10 km+ - 090° 090° 14 kt METAR FIMP 240700Z 09014KT 9999 SCT016 SCT050 24/17 Q1023
10:00
V
25 °C 10 km+ - 100° 100° 15 kt METAR FIMP 240600Z 10015KT 9999 SCT017 SCT050 25/17 Q1024
09:00
V
24 °C 10 km+ - 090° 090° 15 kt METAR FIMP 240500Z 09015KT 9999 SCT018 24/16 Q1024
08:00
V
23 °C 10 km+ - 100° 100° 15 kt METAR FIMP 240400Z 10015KT 9999 SCT018 23/17 Q1024
07:00
V
22 °C 10 km+ - 110° 110° 10 kt METAR FIMP 240300Z 11010KT 9999 SCT018 22/16 Q1023
06:00
V
21 °C 10 km+ - 100° 100° 10 kt METAR FIMP 240200Z 10010KT 9999 SCT018 21/16 Q1023
05:00
M
21 °C 10 km+ 1.700 ft 110° 110° 14 kt METAR FIMP 240100Z 11014KT 9999 VCSH BKN017 SCT050 21/17 Q1022
04:00
V
21 °C 10 km+ - 120° 120° 13 kt METAR FIMP 240000Z 12013KT 9999 VCSH SCT016 SCT050 21/17 Q1022
03:00
V
21 °C 10 km+ - 110° 110° 14 kt METAR FIMP 232300Z 11014KT 9999 SCT017 21/17 Q1023
02:00
V
21 °C 10 km+ - 120° 120° 13 kt METAR FIMP 232200Z 12013KT 9999 VCSH SCT017 21/17 Q1023
01:00
M
21 °C 10 km+ 1.600 ft 110° 110° 16 kt METAR FIMP 232100Z 11016KT 9999 VCSH BKN016 SCT050 21/17 Q1023
00:00
M
20 °C 6 km 1.500 ft 040° 040° 11 kt METAR FIMP 232000Z 04011KT 6000 FEW008 BKN015 20/19 Q1024

23 września 2022

Czas Kod Pogoda Temp. Widoczność Sufit Wiatr METAR/SPECI
23:00
M
21 °C 10 km+ 1.700 ft 090° 090° 14 kt METAR FIMP 231900Z 09014KT 9999 VCSH BKN017 SCT050 21/18 Q1024
22:00
V
21 °C 10 km+ - 090° 090° 14 kt METAR FIMP 231800Z 09014KT 9999 VCSH SCT017 21/18 Q1025
21:00
V
21 °C 10 km+ - 090° 090° 14 kt METAR FIMP 231700Z 09014KT 9999 VCSH SCT017 21/18 Q1024
20:00
V
22 °C 10 km+ - 090° 090° 14 kt METAR FIMP 231600Z 09014KT 9999 SCT018 22/18 Q1024
19:00
M
22 °C 10 km+ 1.600 ft 100° 100° 15 kt METAR FIMP 231500Z 10015KT 9999 VCSH BKN016 22/18 Q1023
18:00
V
23 °C 10 km+ - 110° 110° 14 kt METAR FIMP 231400Z 11014KT 9999 SCT017 23/18 Q1023
17:00
V
24 °C 10 km+ - 100° 100° 13 kt METAR FIMP 231300Z 10013KT 9999 SCT017 24/17 Q1022
16:00
V
24 °C 10 km+ - 100° 100° 16 kt METAR FIMP 231200Z 10016KT 9999 SCT017 24/18 Q1022
15:00
M
25 °C 10 km+ 1.700 ft 110° 110° 16 kt METAR FIMP 231100Z 11016KT 9999 BKN017 25/18 Q1022
14:00
V
26 °C 10 km+ - 100° 100° 19 kt METAR FIMP 231000Z 10019KT 9999 SCT017 26/18 Q1022
13:00
V
25 °C 10 km+ - 100° 100° 17 kt METAR FIMP 230900Z 10017KT 9999 SCT017 25/18 Q1023
12:00
V
26 °C 10 km+ - 090° 090° 16 kt METAR FIMP 230800Z 09016KT 9999 SCT017 26/18 Q1023
11:00
V
25 °C 10 km+ - 090° 090° 16 kt METAR FIMP 230700Z 09016KT 9999 SCT017 25/18 Q1024
10:00
V
24 °C 10 km+ - 080° 080° 16 kt METAR FIMP 230600Z 08016KT 9999 SCT017 24/19 Q1024
09:00
M
24 °C 10 km+ 1.700 ft 080° 080° 14 kt METAR FIMP 230500Z 08014KT 9999 VCSH BKN017 24/19 Q1025
Starsze dane

My i osoby trzecie śledzimy twoje zachowanie w internecie na naszej stronie za pomocą plików cookie. Jeśli kontynuujesz, zakładamy, że zgadzasz się z naszą polityką plików cookie. Dowiedz się więcej